Terminal Aerodrome Forecast
Issued by NWS

Home | Current Version | Previous Version | Text Only | Print | Product List | Glossary On
Versions: 1 2 3 4 5 6 7 8 9 10 11 12 13 14 15 16 17 18 19 20 21 22 23 24 25 26 27
197
FTUS41 KOKX 251321 AAA
TAFSWF
TAF AMD
KSWF 251321Z 2513/2618 07005KT 5SM BR OVC008
     FM251500 07005KT P6SM SCT008 OVC015
     FM251700 05005KT P6SM OVC025
     FM252300 06006KT P6SM BKN040
     FM260400 VRB03KT P6SM SCT045
      AMD NOT SKED=

USA.gov is the U.S. government's official web portal to all federal, state and local government web resources and services.